createdAt,value
2023-03-21T00:02:18.674Z,67.90
2023-03-21T00:07:39.264Z,67.60
2023-03-21T00:10:16.722Z,67.20
2023-03-21T00:12:57.076Z,67.30
2023-03-21T00:18:25.330Z,67.20
2023-03-21T00:21:38.441Z,67.30
2023-03-21T00:23:58.606Z,67.60
2023-03-21T00:26:29.796Z,67.80
2023-03-21T00:29:01.930Z,67.10
2023-03-21T00:31:36.264Z,67.10
2023-03-21T00:34:07.371Z,67.20
2023-03-21T00:36:38.167Z,67.50
2023-03-21T00:39:08.568Z,67.60
2023-03-21T00:41:42.881Z,68.90
2023-03-21T00:44:17.763Z,68.30
2023-03-21T00:47:00.851Z,68.40
2023-03-21T00:49:36.953Z,67.30
2023-03-21T00:52:17.195Z,68.20
2023-03-21T00:54:50.677Z,67.00
2023-03-21T00:57:29.273Z,67.00
2023-03-21T01:00:10.603Z,67.20
2023-03-21T01:03:08.432Z,67.60
2023-03-21T01:06:07.834Z,67.20
2023-03-21T01:08:55.013Z,67.40
2023-03-21T01:11:28.906Z,67.10
2023-03-21T01:14:18.830Z,66.50
2023-03-21T01:16:52.889Z,66.30
2023-03-21T01:19:44.800Z,65.60
2023-03-21T01:22:19.376Z,65.50
2023-03-21T01:24:55.426Z,65.20
2023-03-21T01:27:28.719Z,65.00
2023-03-21T01:30:00.167Z,64.00
2023-03-21T01:32:30.481Z,64.40
2023-03-21T01:35:00.869Z,64.20
2023-03-21T01:37:31.144Z,64.30
2023-03-21T01:40:01.532Z,64.40
2023-03-21T01:42:33.743Z,64.60
2023-03-21T01:45:10.812Z,64.80
2023-03-21T01:47:41.129Z,65.90
2023-03-21T01:50:12.194Z,65.20
2023-03-21T01:52:43.541Z,65.10
2023-03-21T01:55:17.153Z,64.80
2023-03-21T01:58:05.792Z,65.10
2023-03-21T02:00:38.259Z,65.00
2023-03-21T02:03:23.553Z,64.70
2023-03-21T02:06:15.390Z,65.50
2023-03-21T02:08:45.654Z,64.40
2023-03-21T02:11:15.975Z,65.00
2023-03-21T02:13:46.816Z,65.60
2023-03-21T02:16:50.846Z,65.80
2023-03-21T02:19:35.671Z,66.50
2023-03-21T02:22:39.208Z,66.10
2023-03-21T02:25:31.382Z,66.30
2023-03-21T02:28:25.117Z,66.60
2023-03-21T02:30:56.030Z,66.40
2023-03-21T02:34:04.067Z,65.40
2023-03-21T02:36:52.972Z,66.10
2023-03-21T02:39:45.901Z,66.00
2023-03-21T02:42:24.548Z,66.30
2023-03-21T02:45:28.880Z,66.10
2023-03-21T02:48:26.836Z,65.70
2023-03-21T02:51:04.698Z,65.90
2023-03-21T02:53:40.394Z,66.30
2023-03-21T02:56:12.646Z,67.00
2023-03-21T02:58:44.748Z,66.20
2023-03-21T03:01:15.163Z,66.20
2023-03-21T03:03:45.586Z,66.50
2023-03-21T03:06:24.755Z,67.30
2023-03-21T03:09:16.204Z,67.60
2023-03-21T03:12:19.841Z,67.30
2023-03-21T03:15:19.551Z,67.70
2023-03-21T03:18:04.584Z,67.70
2023-03-21T03:20:53.167Z,67.50
2023-03-21T03:23:37.664Z,67.40
2023-03-21T03:26:10.440Z,67.60
2023-03-21T03:28:49.189Z,67.60
2023-03-21T03:31:34.624Z,67.80
2023-03-21T03:34:14.582Z,67.70
2023-03-21T03:36:49.238Z,68.10
2023-03-21T03:39:20.838Z,68.20
2023-03-21T03:42:18.463Z,68.90
2023-03-21T03:44:58.642Z,68.80
2023-03-21T03:47:57.033Z,68.70
2023-03-21T03:50:43.366Z,68.90
2023-03-21T03:53:29.756Z,69.50
2023-03-21T03:56:03.218Z,69.70
2023-03-21T03:58:44.842Z,69.70
2023-03-21T04:01:17.349Z,69.30
2023-03-21T04:04:06.980Z,69.60
2023-03-21T04:06:44.696Z,69.40
2023-03-21T04:09:20.992Z,69.00
2023-03-21T04:11:54.738Z,69.00
2023-03-21T04:14:28.733Z,69.20
2023-03-21T04:17:06.126Z,70.30
2023-03-21T04:19:36.407Z,69.40
2023-03-21T04:22:06.869Z,69.10
2023-03-21T04:24:39.171Z,69.70
2023-03-21T04:27:10.065Z,69.30
2023-03-21T04:29:41.104Z,69.80
2023-03-21T04:32:18.369Z,69.60
2023-03-21T04:34:51.641Z,69.20
2023-03-21T04:37:23.137Z,69.00
2023-03-21T04:39:54.515Z,68.90
2023-03-21T04:42:27.216Z,69.80
2023-03-21T04:44:57.520Z,68.80
2023-03-21T04:47:28.511Z,68.70
2023-03-21T04:50:02.356Z,68.60
2023-03-21T04:52:33.003Z,68.60
2023-03-21T04:55:04.234Z,68.80
2023-03-21T04:57:34.902Z,68.80
2023-03-21T05:00:09.263Z,69.00
2023-03-21T05:02:40.632Z,69.20
2023-03-21T05:05:13.312Z,68.80
2023-03-21T05:07:44.715Z,69.30
2023-03-21T05:10:16.290Z,69.80
2023-03-21T05:12:48.522Z,70.10
2023-03-21T05:15:18.813Z,69.10
2023-03-21T05:17:52.310Z,69.40
2023-03-21T05:20:23.023Z,69.20
2023-03-21T05:22:54.325Z,70.20
2023-03-21T05:25:37.069Z,70.00
2023-03-21T05:28:13.023Z,70.50
2023-03-21T05:30:44.206Z,70.30
2023-03-21T05:33:18.461Z,70.40
2023-03-21T05:35:53.019Z,69.60
2023-03-21T05:38:33.434Z,70.10
2023-03-21T05:41:04.040Z,70.20
2023-03-21T05:43:34.850Z,70.10
2023-03-21T05:46:05.276Z,70.80
2023-03-21T05:48:37.569Z,70.00
2023-03-21T05:51:16.258Z,70.10
2023-03-21T05:53:48.129Z,70.40
2023-03-21T05:56:18.696Z,70.00
2023-03-21T05:58:49.431Z,70.00
2023-03-21T06:01:20.491Z,70.10
2023-03-21T06:03:51.171Z,70.30
2023-03-21T06:06:21.872Z,71.30
2023-03-21T06:08:53.783Z,71.70
2023-03-21T06:11:42.337Z,71.90
2023-03-21T06:14:16.285Z,71.40
2023-03-21T06:16:48.170Z,71.60
2023-03-21T06:19:19.394Z,72.10
2023-03-21T06:21:52.006Z,72.50
2023-03-21T06:24:24.313Z,72.70
2023-03-21T06:26:54.584Z,72.80
2023-03-21T06:29:25.796Z,73.40
2023-03-21T06:31:58.074Z,74.40
2023-03-21T06:34:28.975Z,75.20
2023-03-21T06:37:00.250Z,76.10
2023-03-21T06:39:30.757Z,77.00
2023-03-21T06:42:01.385Z,77.90
2023-03-21T06:44:33.598Z,79.40
2023-03-21T06:47:04.086Z,80.10
2023-03-21T06:49:34.782Z,81.40
2023-03-21T06:52:05.226Z,82.10
2023-03-21T06:54:36.058Z,82.20
2023-03-21T06:57:07.407Z,83.00
2023-03-21T06:59:38.104Z,83.40
2023-03-21T07:02:08.889Z,85.10
2023-03-21T07:04:41.375Z,85.10
2023-03-21T07:07:12.029Z,85.00
2023-03-21T07:09:43.933Z,85.60
2023-03-21T07:12:14.276Z,85.90
2023-03-21T07:14:44.637Z,86.70
2023-03-21T07:17:14.929Z,86.90
2023-03-21T07:19:47.333Z,88.10
2023-03-21T07:22:19.805Z,88.20
2023-03-21T07:25:02.467Z,88.10
2023-03-21T07:27:35.275Z,88.10
2023-03-21T07:30:07.567Z,88.20
2023-03-21T07:32:39.587Z,88.70
2023-03-21T07:35:16.952Z,89.00
2023-03-21T07:37:47.888Z,88.60
2023-03-21T07:40:20.860Z,88.20
2023-03-21T07:42:56.497Z,87.80
2023-03-21T07:45:36.090Z,88.70
2023-03-21T07:48:27.395Z,88.60
2023-03-21T07:50:58.711Z,88.10
2023-03-21T07:53:29.010Z,88.60
2023-03-21T07:55:59.639Z,89.60
2023-03-21T07:58:30.789Z,89.60
2023-03-21T08:01:02.089Z,90.20
2023-03-21T08:03:34.903Z,90.40
2023-03-21T08:06:05.346Z,90.60
2023-03-21T08:08:36.157Z,90.80
2023-03-21T08:11:09.725Z,90.70
2023-03-21T08:13:42.066Z,90.70
2023-03-21T08:16:12.686Z,90.80
2023-03-21T08:18:44.418Z,90.70
2023-03-21T08:21:14.647Z,90.80
2023-03-21T08:23:44.946Z,91.00
2023-03-21T08:26:19.804Z,91.40
2023-03-21T08:28:50.065Z,91.40
2023-03-21T08:31:20.509Z,91.20
2023-03-21T08:33:56.438Z,91.40
2023-03-21T08:36:28.525Z,91.70
2023-03-21T08:39:07.002Z,92.10
2023-03-21T08:41:39.184Z,91.80
2023-03-21T08:44:10.149Z,91.70
2023-03-21T08:46:40.411Z,92.20
2023-03-21T08:49:11.103Z,92.50
2023-03-21T08:51:42.833Z,92.50
2023-03-21T08:54:24.271Z,92.50
2023-03-21T08:56:54.589Z,92.40
2023-03-21T08:59:24.825Z,92.60
2023-03-21T09:01:56.025Z,92.80
2023-03-21T09:04:28.166Z,92.70
2023-03-21T09:06:59.118Z,92.60
2023-03-21T09:09:33.169Z,92.60
2023-03-21T09:12:03.494Z,92.90
2023-03-21T09:14:36.473Z,92.80
2023-03-21T09:17:06.764Z,92.60
2023-03-21T09:19:38.051Z,92.50
2023-03-21T09:22:13.221Z,92.80
2023-03-21T09:24:44.255Z,92.90
2023-03-21T09:27:16.150Z,92.80
2023-03-21T09:29:46.716Z,92.60
2023-03-21T09:32:17.003Z,92.40
2023-03-21T09:34:47.621Z,92.10
2023-03-21T09:37:18.189Z,92.40
2023-03-21T09:39:48.789Z,92.70
2023-03-21T09:42:34.046Z,93.00
2023-03-21T09:45:27.940Z,92.70
2023-03-21T09:48:00.200Z,92.60
2023-03-21T09:50:35.185Z,92.70
2023-03-21T09:53:18.265Z,92.70
2023-03-21T09:55:49.960Z,92.80
2023-03-21T09:58:34.997Z,92.90
2023-03-21T10:01:28.870Z,92.90
2023-03-21T10:04:03.063Z,93.00
2023-03-21T10:06:34.927Z,93.10
2023-03-21T10:09:16.746Z,93.20
2023-03-21T10:12:10.899Z,93.60
2023-03-21T10:14:46.411Z,93.50
2023-03-21T10:17:40.442Z,93.40
2023-03-21T10:20:15.847Z,93.80
2023-03-21T10:22:49.720Z,93.50
2023-03-21T10:25:24.019Z,93.60
2023-03-21T10:27:55.824Z,93.70
2023-03-21T10:30:47.877Z,93.80
2023-03-21T10:33:23.264Z,93.80
2023-03-21T10:35:59.336Z,93.60
2023-03-21T10:38:34.916Z,93.40
2023-03-21T10:41:06.878Z,93.50
2023-03-21T10:43:41.708Z,93.60
2023-03-21T10:46:26.249Z,93.50
2023-03-21T10:48:57.733Z,93.40
2023-03-21T10:51:38.003Z,93.60
2023-03-21T10:54:13.857Z,93.80
2023-03-21T10:56:54.369Z,93.70
2023-03-21T10:59:25.569Z,93.70
2023-03-21T11:01:58.878Z,93.60
2023-03-21T11:04:32.592Z,93.70
2023-03-21T11:07:10.849Z,93.40
2023-03-21T11:09:53.622Z,93.30
2023-03-21T11:12:50.516Z,93.20
2023-03-21T11:15:43.183Z,93.30
2023-03-21T11:18:26.708Z,93.40
2023-03-21T11:21:06.928Z,93.10
2023-03-21T11:23:42.155Z,93.10
2023-03-21T11:26:18.839Z,93.00
2023-03-21T11:28:49.595Z,93.00
2023-03-21T11:31:20.331Z,92.90
2023-03-21T11:34:01.650Z,92.90
2023-03-21T11:36:40.524Z,92.80
2023-03-21T11:39:31.494Z,93.10
2023-03-21T11:42:02.721Z,93.20
2023-03-21T11:44:37.878Z,93.50
2023-03-21T11:47:11.607Z,93.50
2023-03-21T11:49:44.028Z,93.40
2023-03-21T11:52:35.260Z,93.20
2023-03-21T11:55:29.295Z,92.90
2023-03-21T11:58:34.663Z,93.20
2023-03-21T12:01:30.084Z,92.90
2023-03-21T12:04:44.639Z,93.20
2023-03-21T12:07:49.954Z,93.10
2023-03-21T12:10:50.050Z,93.10
2023-03-21T12:13:35.992Z,93.00
2023-03-21T12:16:15.169Z,93.20
2023-03-21T12:18:49.158Z,93.30
2023-03-21T12:21:47.176Z,93.70
2023-03-21T12:24:25.712Z,93.50
2023-03-21T12:27:27.487Z,93.60
2023-03-21T12:30:10.977Z,93.60
2023-03-21T12:33:15.538Z,93.60
2023-03-21T12:36:13.144Z,93.80
2023-03-21T12:38:46.462Z,93.90
2023-03-21T12:41:37.243Z,93.90
2023-03-21T12:44:13.058Z,94.00
2023-03-21T12:47:01.324Z,93.90
2023-03-21T12:49:34.642Z,94.00
2023-03-21T12:52:35.599Z,94.10
2023-03-21T12:55:25.249Z,94.10
2023-03-21T12:58:07.994Z,94.10
2023-03-21T13:00:48.233Z,94.10
2023-03-21T13:03:38.975Z,93.80
2023-03-21T13:06:14.032Z,93.70
2023-03-21T13:08:54.105Z,93.90
2023-03-21T13:11:28.055Z,94.10
2023-03-21T13:14:03.690Z,94.10
2023-03-21T13:16:40.444Z,94.10
2023-03-21T13:19:22.480Z,94.00
2023-03-21T13:22:09.047Z,93.80
2023-03-21T13:24:51.849Z,93.90
2023-03-21T13:27:36.333Z,93.60
2023-03-21T13:30:28.751Z,93.50
2023-03-21T13:33:13.913Z,93.60
2023-03-21T13:35:46.751Z,93.60
2023-03-21T13:38:42.052Z,93.50
2023-03-21T13:41:33.361Z,93.60
2023-03-21T13:44:07.178Z,93.50
2023-03-21T13:46:58.048Z,93.50
2023-03-21T13:49:37.631Z,93.60
2023-03-21T13:52:15.163Z,93.60
2023-03-21T13:54:57.278Z,93.60
2023-03-21T13:57:34.103Z,93.60
2023-03-21T14:00:21.103Z,93.70
2023-03-21T14:03:03.123Z,93.50
2023-03-21T14:05:40.699Z,93.30
2023-03-21T14:08:36.811Z,93.60
2023-03-21T14:11:12.632Z,93.50
2023-03-21T14:13:51.659Z,93.60
2023-03-21T14:16:26.030Z,93.80
2023-03-21T14:19:02.106Z,93.70
2023-03-21T14:21:35.591Z,93.80
2023-03-21T14:24:09.000Z,93.80
2023-03-21T14:26:51.839Z,93.60
2023-03-21T14:29:34.128Z,93.60
2023-03-21T14:32:15.780Z,93.70
2023-03-21T14:34:49.016Z,93.70
2023-03-21T14:37:35.873Z,93.60
2023-03-21T14:40:11.217Z,93.60
2023-03-21T14:42:41.992Z,93.70
2023-03-21T14:45:36.530Z,93.60
2023-03-21T14:48:16.242Z,93.40
2023-03-21T14:50:58.025Z,93.20
2023-03-21T14:53:33.983Z,93.20
2023-03-21T14:56:12.199Z,93.30
2023-03-21T14:58:45.137Z,93.20
2023-03-21T15:01:37.047Z,93.40
2023-03-21T15:04:10.144Z,93.00
2023-03-21T15:06:56.328Z,93.20
2023-03-21T15:09:32.862Z,93.40
2023-03-21T15:12:04.326Z,93.50
2023-03-21T15:14:40.053Z,93.50
2023-03-21T15:17:14.533Z,93.40
2023-03-21T15:19:45.863Z,92.90
2023-03-21T15:22:39.573Z,93.10
2023-03-21T15:25:14.997Z,93.30
2023-03-21T15:27:46.317Z,93.40
2023-03-21T15:30:32.744Z,93.50
2023-03-21T15:33:14.232Z,93.60
2023-03-21T15:35:57.170Z,93.70
2023-03-21T15:38:42.861Z,93.60
2023-03-21T15:41:25.206Z,93.50
2023-03-21T15:44:04.923Z,93.70
2023-03-21T15:46:47.800Z,93.70
2023-03-21T15:49:35.380Z,93.70
2023-03-21T15:52:18.406Z,93.60
2023-03-21T15:54:58.852Z,93.40
2023-03-21T15:57:34.847Z,93.60
2023-03-21T16:00:38.332Z,93.50
2023-03-21T16:03:38.344Z,93.40
2023-03-21T16:06:16.664Z,93.40
2023-03-21T16:08:48.328Z,93.10
2023-03-21T16:11:27.045Z,93.20
2023-03-21T16:14:00.185Z,93.20
2023-03-21T16:16:33.244Z,93.20
2023-03-21T16:19:04.949Z,92.90
2023-03-21T16:21:36.969Z,92.80
2023-03-21T16:24:11.076Z,92.90
2023-03-21T16:26:55.636Z,93.10
2023-03-21T16:29:29.806Z,93.20
2023-03-21T16:32:00.482Z,93.10
2023-03-21T16:34:31.382Z,93.10
2023-03-21T16:37:02.704Z,93.00
2023-03-21T16:39:34.290Z,93.00
2023-03-21T16:42:05.025Z,93.20
2023-03-21T16:44:37.809Z,93.20
2023-03-21T16:47:20.661Z,93.40
2023-03-21T16:49:51.999Z,93.60
2023-03-21T16:52:25.132Z,93.50
2023-03-21T16:54:57.037Z,93.80
2023-03-21T16:57:32.409Z,93.90
2023-03-21T17:00:04.268Z,93.90
2023-03-21T17:02:34.954Z,94.20
2023-03-21T17:05:06.078Z,94.00
2023-03-21T17:07:36.861Z,93.80
2023-03-21T17:10:13.374Z,93.60
2023-03-21T17:12:44.091Z,93.70
2023-03-21T17:15:16.027Z,93.60
2023-03-21T17:17:47.982Z,93.80
2023-03-21T17:20:40.314Z,93.80
2023-03-21T17:23:12.289Z,93.90
2023-03-21T17:25:43.034Z,93.80
2023-03-21T17:28:13.776Z,93.80
2023-03-21T17:30:45.017Z,93.80
2023-03-21T17:33:17.392Z,93.80
2023-03-21T17:35:48.143Z,93.70
2023-03-21T17:38:20.046Z,93.50
2023-03-21T17:40:50.757Z,93.50
2023-03-21T17:43:23.710Z,93.60
2023-03-21T17:45:54.718Z,93.70
2023-03-21T17:48:25.489Z,93.80
2023-03-21T17:50:56.312Z,93.80
2023-03-21T17:53:28.725Z,93.80
2023-03-21T17:55:59.724Z,93.80
2023-03-21T17:58:30.654Z,93.80
2023-03-21T18:01:01.534Z,93.90
2023-03-21T18:03:36.143Z,94.00
2023-03-21T18:06:07.708Z,94.00
2023-03-21T18:08:38.361Z,94.00
2023-03-21T18:11:09.327Z,94.00
2023-03-21T18:13:40.302Z,94.40
2023-03-21T18:16:14.779Z,94.00
2023-03-21T18:18:48.460Z,94.00
2023-03-21T18:21:20.510Z,94.70
2023-03-21T18:23:51.659Z,94.00
2023-03-21T18:26:27.420Z,94.00
2023-03-21T18:29:53.295Z,94.00
2023-03-21T18:32:04.548Z,94.00
2023-03-21T18:34:36.374Z,94.20
2023-03-21T18:37:08.103Z,94.10
2023-03-21T18:39:39.673Z,94.20
2023-03-21T18:42:16.633Z,94.00
2023-03-21T18:44:49.333Z,94.20
2023-03-21T18:47:21.481Z,94.30
2023-03-21T18:52:44.125Z,94.20
2023-03-21T18:55:17.079Z,94.20
2023-03-21T18:57:49.434Z,94.30
2023-03-21T19:00:24.018Z,94.50
2023-03-21T19:03:09.930Z,94.30
2023-03-21T19:06:07.970Z,94.10
2023-03-21T19:08:41.824Z,94.30
2023-03-21T19:11:13.024Z,94.10
2023-03-21T19:13:44.981Z,94.00
2023-03-21T19:16:18.511Z,94.10
2023-03-21T19:18:54.962Z,93.90
2023-03-21T19:21:27.394Z,94.10
2023-03-21T19:24:25.190Z,94.10
2023-03-21T19:26:50.150Z,94.00
2023-03-21T19:29:20.876Z,94.60
2023-03-21T19:31:53.936Z,94.20
2023-03-21T19:34:27.680Z,94.00
2023-03-21T19:36:59.492Z,94.10
2023-03-21T19:39:30.590Z,94.00
2023-03-21T19:42:15.069Z,93.80
2023-03-21T19:44:46.704Z,94.00
2023-03-21T19:47:18.542Z,94.00
2023-03-21T19:50:34.985Z,94.00
2023-03-21T19:52:42.015Z,93.90
2023-03-21T19:55:13.368Z,93.90
2023-03-21T19:57:44.023Z,94.00
2023-03-21T20:00:16.381Z,94.00
2023-03-21T20:02:50.062Z,93.80
2023-03-21T20:05:27.472Z,94.00
2023-03-21T20:07:59.604Z,94.00
2023-03-21T20:10:30.413Z,94.00
2023-03-21T20:13:01.244Z,94.00
2023-03-21T20:15:32.305Z,94.00
2023-03-21T20:18:04.056Z,94.00
2023-03-21T20:20:36.666Z,94.00
2023-03-21T20:23:08.480Z,94.00
2023-03-21T20:25:47.004Z,94.00
2023-03-21T20:28:25.787Z,94.00
2023-03-21T20:31:01.497Z,94.00
2023-03-21T20:33:32.773Z,94.00
2023-03-21T20:36:37.592Z,94.00
2023-03-21T20:38:58.380Z,94.00
2023-03-21T20:41:32.360Z,94.50
2023-03-21T20:44:48.108Z,94.30
2023-03-21T20:46:56.643Z,94.70
2023-03-21T20:49:28.437Z,94.10
2023-03-21T20:54:50.053Z,94.00
2023-03-21T20:57:22.063Z,93.90
2023-03-21T20:59:53.982Z,94.00
2023-03-21T21:02:25.088Z,94.50
2023-03-21T21:05:24.073Z,94.60
2023-03-21T21:07:49.010Z,94.40
2023-03-21T21:10:22.251Z,94.10
2023-03-21T21:12:53.385Z,94.10
2023-03-21T21:15:24.463Z,94.10
2023-03-21T21:18:07.395Z,93.90
2023-03-21T21:20:39.459Z,93.90
2023-03-21T21:23:10.808Z,93.80
2023-03-21T21:25:41.908Z,94.10
2023-03-21T21:28:14.062Z,94.10
2023-03-21T21:30:45.239Z,94.20
2023-03-21T21:33:23.029Z,94.10
2023-03-21T21:35:55.630Z,93.90
2023-03-21T21:38:36.043Z,93.80
2023-03-21T21:41:07.356Z,93.70
2023-03-21T21:43:42.316Z,93.80
2023-03-21T21:46:22.693Z,93.60
2023-03-21T21:48:56.069Z,93.10
2023-03-21T21:51:31.911Z,93.10
2023-03-21T21:54:07.270Z,93.30
2023-03-21T21:56:40.992Z,93.20
2023-03-21T21:59:15.339Z,93.20
2023-03-21T22:01:46.159Z,93.30
2023-03-21T22:04:21.384Z,93.10
2023-03-21T22:06:52.208Z,92.80
2023-03-21T22:09:26.515Z,92.70
2023-03-21T22:12:00.387Z,92.70
2023-03-21T22:14:32.400Z,92.90
2023-03-21T22:17:08.674Z,93.10
2023-03-21T22:19:40.302Z,93.00
2023-03-21T22:22:11.641Z,92.80
2023-03-21T22:24:42.339Z,93.00
2023-03-21T22:27:15.764Z,92.50
2023-03-21T22:29:46.790Z,92.20
2023-03-21T22:32:17.797Z,91.80
2023-03-21T22:34:49.024Z,91.60
2023-03-21T22:37:19.711Z,91.70
2023-03-21T22:39:50.480Z,91.90
2023-03-21T22:42:21.353Z,91.80
2023-03-21T22:44:52.010Z,91.70
2023-03-21T22:47:22.698Z,91.40
2023-03-21T22:49:59.191Z,91.10
2023-03-21T22:52:37.719Z,90.90
2023-03-21T22:55:11.730Z,90.60
2023-03-21T22:57:42.423Z,90.60
2023-03-21T23:00:15.756Z,90.60
2023-03-21T23:02:46.428Z,90.70
2023-03-21T23:05:17.626Z,90.90
2023-03-21T23:07:48.496Z,90.90
2023-03-21T23:10:20.728Z,91.00
2023-03-21T23:12:51.670Z,90.90
2023-03-21T23:15:22.382Z,90.40
2023-03-21T23:17:53.972Z,90.40
2023-03-21T23:20:24.741Z,90.10
2023-03-21T23:22:55.935Z,90.30
2023-03-21T23:25:29.998Z,90.10
2023-03-21T23:28:01.327Z,90.10
2023-03-21T23:30:32.770Z,90.10
2023-03-21T23:33:04.288Z,90.00
2023-03-21T23:35:39.186Z,89.90
2023-03-21T23:38:10.945Z,87.90
2023-03-21T23:40:44.762Z,87.30
2023-03-21T23:43:15.392Z,86.80
2023-03-21T23:45:47.315Z,87.90
2023-03-21T23:48:19.284Z,87.70
2023-03-21T23:50:49.997Z,88.10
2023-03-21T23:53:20.969Z,87.70
2023-03-21T23:55:54.364Z,87.10
2023-03-21T23:58:25.897Z,85.40
